Élőkép

Információk

Albatrosz Repülő Egyesület
8000 Székesfehérvár,
Radványi utca 6.

Adószám:
19092908-2-07

Bankszámla szám:
Budapest Bank
10102952-01361819-00000001

Telefon: +36 30 9598-897

Telephey: Börgönd repülőtér

Börgöndi repülõtér

LHBP METAR/TAF

[source: ADDS]
METAR
TAF LHBP 310500Z 3106/0106 12005KT 9999 SCT025 SCT090 BKN200 BECMG 3107/3110 SCT035 SCT100 TEMPO 3110/3120 VRB12KT 6000 -SHRA -TSRA FEW020CB BKN030 BECMG 3120/3123 VRB02KT 5000 BR SCT030 TEMPO 3123/0106 1500 BCFG BR BKN005 TAF
TAF LHBP 310500Z 3106/0106 12005KT 9999 SCT025 SCT090 BKN200 BECMG 3107/3110 SCT035 SCT100 TEMPO 3110/3120 VRB12KT 6000 -SHRA -TSRA FEW020CB BKN030 BECMG 3120/3123 VRB02KT 5000 BR SCT030 TEMPO 3123/0106 1500 BCFG BR BKN005 =
SR / SS: 03:26 / 18:22 UTC (Börgönd 2014-07-31)
Hungarian Chinese (Simplified) Croatian Czech English Finnish French German Hebrew Italian Japanese Polish Portuguese Romanian Russian Serbian Slovak Slovenian Spanish

Belépés tagoknak